Pagrindinis puslapis
METAR-TAF:

METAR-TAF

Oro uostai :

Ndžamena, Čadas

platuma: 12-08N, ilguma: 015-02E, Aukštis: 295 m

Dabartinis oras

Ataskaita buvo paskelbta 32 minutes, ne 07:00 UTC
Vėjas 11 kt iš Šiaurės
Temperatūra 21°C
Drėgmė 21%
Slėgis 1015 hPa
Matomumas: 4500 m
dulkės

METAR: FTTJ 140700Z 01011KT 4500 DU NSC 21/M02 Q1015 NOSIG

Laikas: 08:32 (07:32 UTC)

Prognozė

Ataskaita buvo paskelbta 2 valandos ir 32 minutes, ne 05:00 UTC
Prognozė galioja nuo 14 metu 06 UTC su 15 metu 12 UTC
Vėjas 10 kt iš Šiaurės/Šiaurės Rytų
Matomumas: 8000 m
Laikinai
nuo 14 metu 06 UTC su 14 metu 09 UTC
Matomumas: 4000 m
dulkės
Laikinai
nuo 14 metu 16 UTC su 14 metu 19 UTC
Matomumas: 4000 m
dulkės

TAF: FTTJ 140500Z 1406/1512 02010KT 8000 NSC TEMPO 1406/1409 4000 DU TEMPO 1416/1419 4000 DU

Orai ataskaitas ir orų prognozės (METAR, TAF).

turimą stotys yra geltonos ir raudonos taškus žemėlapyje.

Perkelti pele per norėdami pamatyti stoties vardą.

Tada spustelėkite, norėdami matyti oro stebėjimo ir prognozės.

Norėdami pakeisti žemėlapį: spustelėkite ant žalios mygtukų su juodo kryžiaus žemyn,; žalią mygtuką su brūkšneliu, jei norite nutolinti; arba žalių rodyklių gretimoms žemėlapius.


METAR-TAF: